sensor_id;sensor_type;location;lat;lon;timestamp;temperature;humidity
30628;DHT22;17394;50.890;4.724;2023-07-08T00:02:22;17.80;99.90
30628;DHT22;17394;50.890;4.724;2023-07-08T00:04:48;17.80;99.90
30628;DHT22;17394;50.890;4.724;2023-07-08T00:07:15;17.70;99.90
30628;DHT22;17394;50.890;4.724;2023-07-08T00:09:43;17.70;99.90
30628;DHT22;17394;50.890;4.724;2023-07-08T00:12:10;17.70;99.90
30628;DHT22;17394;50.890;4.724;2023-07-08T00:14:36;17.60;99.90
30628;DHT22;17394;50.890;4.724;2023-07-08T00:17:01;17.60;99.90
30628;DHT22;17394;50.890;4.724;2023-07-08T00:19:27;17.60;99.90
30628;DHT22;17394;50.890;4.724;2023-07-08T00:21:53;17.50;99.90
30628;DHT22;17394;50.890;4.724;2023-07-08T00:24:19;17.50;99.90
30628;DHT22;17394;50.890;4.724;2023-07-08T00:26:45;17.40;99.90
30628;DHT22;17394;50.890;4.724;2023-07-08T00:29:10;17.40;99.90
30628;DHT22;17394;50.890;4.724;2023-07-08T00:31:37;17.40;99.90
30628;DHT22;17394;50.890;4.724;2023-07-08T00:34:03;17.40;99.90
30628;DHT22;17394;50.890;4.724;2023-07-08T00:36:29;17.30;99.90
30628;DHT22;17394;50.890;4.724;2023-07-08T00:38:56;17.30;99.90
30628;DHT22;17394;50.890;4.724;2023-07-08T00:43:52;17.20;99.90
30628;DHT22;17394;50.890;4.724;2023-07-08T00:48:55;17.20;99.90
30628;DHT22;17394;50.890;4.724;2023-07-08T00:51:22;17.20;99.90
30628;DHT22;17394;50.890;4.724;2023-07-08T00:53:48;17.10;99.90
30628;DHT22;17394;50.890;4.724;2023-07-08T00:56:16;17.10;99.90
30628;DHT22;17394;50.890;4.724;2023-07-08T00:58:48;17.10;99.90
30628;DHT22;17394;50.890;4.724;2023-07-08T01:01:15;17.10;99.90
30628;DHT22;17394;50.890;4.724;2023-07-08T01:03:46;17.10;99.90
30628;DHT22;17394;50.890;4.724;2023-07-08T01:06:15;17.10;99.90
30628;DHT22;17394;50.890;4.724;2023-07-08T01:08:41;17.00;99.90
30628;DHT22;17394;50.890;4.724;2023-07-08T01:11:08;17.00;99.90
30628;DHT22;17394;50.890;4.724;2023-07-08T01:13:35;17.00;99.90
30628;DHT22;17394;50.890;4.724;2023-07-08T01:16:02;16.90;99.90
30628;DHT22;17394;50.890;4.724;2023-07-08T01:18:29;16.90;99.90
30628;DHT22;17394;50.890;4.724;2023-07-08T01:21:00;16.90;99.90
30628;DHT22;17394;50.890;4.724;2023-07-08T01:23:26;16.90;99.90
30628;DHT22;17394;50.890;4.724;2023-07-08T01:25:52;16.80;99.90
30628;DHT22;17394;50.890;4.724;2023-07-08T01:28:19;16.80;99.90
30628;DHT22;17394;50.890;4.724;2023-07-08T01:30:45;16.80;99.90
30628;DHT22;17394;50.890;4.724;2023-07-08T01:33:19;16.80;99.90
30628;DHT22;17394;50.890;4.724;2023-07-08T01:35:47;16.70;99.90
30628;DHT22;17394;50.890;4.724;2023-07-08T01:38:16;16.70;99.90
30628;DHT22;17394;50.890;4.724;2023-07-08T01:40:53;16.70;99.90
30628;DHT22;17394;50.890;4.724;2023-07-08T01:43:20;16.70;99.90
30628;DHT22;17394;50.890;4.724;2023-07-08T01:45:46;16.70;99.90
30628;DHT22;17394;50.890;4.724;2023-07-08T01:48:14;16.70;99.90
30628;DHT22;17394;50.890;4.724;2023-07-08T01:50:49;16.70;99.90
30628;DHT22;17394;50.890;4.724;2023-07-08T01:53:18;16.60;99.90
30628;DHT22;17394;50.890;4.724;2023-07-08T01:55:44;16.60;99.90
30628;DHT22;17394;50.890;4.724;2023-07-08T01:58:10;16.60;99.90
30628;DHT22;17394;50.890;4.724;2023-07-08T02:00:37;16.50;99.90
30628;DHT22;17394;50.890;4.724;2023-07-08T02:03:03;16.50;99.90
30628;DHT22;17394;50.890;4.724;2023-07-08T02:05:29;16.50;99.90
30628;DHT22;17394;50.890;4.724;2023-07-08T02:07:55;16.40;99.90
30628;DHT22;17394;50.890;4.724;2023-07-08T02:10:21;16.40;99.90
30628;DHT22;17394;50.890;4.724;2023-07-08T02:12:47;16.40;99.90
30628;DHT22;17394;50.890;4.724;2023-07-08T02:15:13;16.30;99.90
30628;DHT22;17394;50.890;4.724;2023-07-08T02:17:39;16.30;99.90
30628;DHT22;17394;50.890;4.724;2023-07-08T02:20:05;16.30;99.90
30628;DHT22;17394;50.890;4.724;2023-07-08T02:22:33;16.30;99.90
30628;DHT22;17394;50.890;4.724;2023-07-08T02:25:02;16.20;99.90
30628;DHT22;17394;50.890;4.724;2023-07-08T02:27:28;16.20;99.90
30628;DHT22;17394;50.890;4.724;2023-07-08T02:29:54;16.20;99.90
30628;DHT22;17394;50.890;4.724;2023-07-08T02:32:20;16.10;99.90
30628;DHT22;17394;50.890;4.724;2023-07-08T02:34:46;16.10;99.90
30628;DHT22;17394;50.890;4.724;2023-07-08T02:37:12;16.00;99.90
30628;DHT22;17394;50.890;4.724;2023-07-08T02:39:38;16.00;99.90
30628;DHT22;17394;50.890;4.724;2023-07-08T02:42:04;16.00;99.90
30628;DHT22;17394;50.890;4.724;2023-07-08T02:44:30;16.00;99.90
30628;DHT22;17394;50.890;4.724;2023-07-08T02:46:56;16.00;99.90
30628;DHT22;17394;50.890;4.724;2023-07-08T02:49:22;16.00;99.90
30628;DHT22;17394;50.890;4.724;2023-07-08T02:51:48;16.00;99.90
30628;DHT22;17394;50.890;4.724;2023-07-08T02:54:14;15.90;99.90
30628;DHT22;17394;50.890;4.724;2023-07-08T02:56:41;15.90;99.90
30628;DHT22;17394;50.890;4.724;2023-07-08T02:59:07;15.90;99.90
30628;DHT22;17394;50.890;4.724;2023-07-08T03:01:33;15.90;99.90
30628;DHT22;17394;50.890;4.724;2023-07-08T03:04:10;15.90;99.90
30628;DHT22;17394;50.890;4.724;2023-07-08T03:06:42;15.90;99.90
30628;DHT22;17394;50.890;4.724;2023-07-08T03:09:09;15.90;99.90
30628;DHT22;17394;50.890;4.724;2023-07-08T03:11:35;16.00;99.90
30628;DHT22;17394;50.890;4.724;2023-07-08T03:14:02;16.00;99.90
30628;DHT22;17394;50.890;4.724;2023-07-08T03:16:28;16.00;99.90
30628;DHT22;17394;50.890;4.724;2023-07-08T03:18:54;16.00;99.90
30628;DHT22;17394;50.890;4.724;2023-07-08T03:21:19;16.00;99.90
30628;DHT22;17394;50.890;4.724;2023-07-08T03:23:45;16.00;99.90
30628;DHT22;17394;50.890;4.724;2023-07-08T03:26:24;16.00;99.90
30628;DHT22;17394;50.890;4.724;2023-07-08T03:28:50;16.00;99.90
30628;DHT22;17394;50.890;4.724;2023-07-08T03:31:16;16.00;99.90
30628;DHT22;17394;50.890;4.724;2023-07-08T03:33:42;16.10;99.90
30628;DHT22;17394;50.890;4.724;2023-07-08T03:36:09;16.00;99.90
30628;DHT22;17394;50.890;4.724;2023-07-08T03:38:37;16.00;99.90
30628;DHT22;17394;50.890;4.724;2023-07-08T03:41:03;16.00;99.90
30628;DHT22;17394;50.890;4.724;2023-07-08T03:43:30;16.00;99.90
30628;DHT22;17394;50.890;4.724;2023-07-08T03:45:56;16.00;99.90
30628;DHT22;17394;50.890;4.724;2023-07-08T03:48:22;16.00;99.90
30628;DHT22;17394;50.890;4.724;2023-07-08T03:50:48;16.00;99.90
30628;DHT22;17394;50.890;4.724;2023-07-08T03:53:15;16.00;99.90
30628;DHT22;17394;50.890;4.724;2023-07-08T03:55:41;16.00;99.90
30628;DHT22;17394;50.890;4.724;2023-07-08T03:58:07;16.00;99.90
30628;DHT22;17394;50.890;4.724;2023-07-08T04:00:34;16.00;99.90
30628;DHT22;17394;50.890;4.724;2023-07-08T04:03:00;15.90;99.90
30628;DHT22;17394;50.890;4.724;2023-07-08T04:05:26;15.90;99.90
30628;DHT22;17394;50.890;4.724;2023-07-08T04:07:53;15.90;99.90
30628;DHT22;17394;50.890;4.724;2023-07-08T04:10:19;15.90;99.90
30628;DHT22;17394;50.890;4.724;2023-07-08T04:12:45;15.90;99.90
30628;DHT22;17394;50.890;4.724;2023-07-08T04:15:11;15.90;99.90
30628;DHT22;17394;50.890;4.724;2023-07-08T04:17:41;15.90;99.90
30628;DHT22;17394;50.890;4.724;2023-07-08T04:20:10;15.90;99.90
30628;DHT22;17394;50.890;4.724;2023-07-08T04:22:36;15.90;99.90
30628;DHT22;17394;50.890;4.724;2023-07-08T04:25:03;16.00;99.90
30628;DHT22;17394;50.890;4.724;2023-07-08T04:27:29;15.90;99.90
30628;DHT22;17394;50.890;4.724;2023-07-08T04:29:55;15.90;99.90
30628;DHT22;17394;50.890;4.724;2023-07-08T04:32:20;15.90;99.90
30628;DHT22;17394;50.890;4.724;2023-07-08T04:34:53;15.90;99.90
30628;DHT22;17394;50.890;4.724;2023-07-08T04:37:18;15.90;99.90
30628;DHT22;17394;50.890;4.724;2023-07-08T04:39:47;15.90;99.90
30628;DHT22;17394;50.890;4.724;2023-07-08T04:42:13;15.90;99.90
30628;DHT22;17394;50.890;4.724;2023-07-08T04:44:40;16.00;99.90
30628;DHT22;17394;50.890;4.724;2023-07-08T04:47:06;16.00;99.90
30628;DHT22;17394;50.890;4.724;2023-07-08T04:49:34;16.00;99.90
30628;DHT22;17394;50.890;4.724;2023-07-08T04:52:00;16.00;99.90
30628;DHT22;17394;50.890;4.724;2023-07-08T04:54:30;16.00;99.90
30628;DHT22;17394;50.890;4.724;2023-07-08T04:56:55;16.00;99.90
30628;DHT22;17394;50.890;4.724;2023-07-08T04:59:23;16.10;99.90
30628;DHT22;17394;50.890;4.724;2023-07-08T05:01:49;16.10;99.90
30628;DHT22;17394;50.890;4.724;2023-07-08T05:04:15;16.10;99.90
30628;DHT22;17394;50.890;4.724;2023-07-08T05:06:41;16.20;99.90
30628;DHT22;17394;50.890;4.724;2023-07-08T05:09:07;16.20;99.90
30628;DHT22;17394;50.890;4.724;2023-07-08T05:11:35;16.20;99.90
30628;DHT22;17394;50.890;4.724;2023-07-08T05:14:02;16.30;99.90
30628;DHT22;17394;50.890;4.724;2023-07-08T05:16:28;16.30;99.90
30628;DHT22;17394;50.890;4.724;2023-07-08T05:18:57;16.40;99.90
30628;DHT22;17394;50.890;4.724;2023-07-08T05:21:23;16.40;99.90
30628;DHT22;17394;50.890;4.724;2023-07-08T05:23:49;16.50;99.90
30628;DHT22;17394;50.890;4.724;2023-07-08T05:26:16;16.50;99.90
30628;DHT22;17394;50.890;4.724;2023-07-08T05:28:41;16.60;99.90
30628;DHT22;17394;50.890;4.724;2023-07-08T05:31:07;16.60;99.90
30628;DHT22;17394;50.890;4.724;2023-07-08T05:33:33;16.70;99.90
30628;DHT22;17394;50.890;4.724;2023-07-08T05:35:59;16.70;99.90
30628;DHT22;17394;50.890;4.724;2023-07-08T05:38:25;16.70;99.90
30628;DHT22;17394;50.890;4.724;2023-07-08T05:40:53;16.80;99.90
30628;DHT22;17394;50.890;4.724;2023-07-08T05:43:19;16.90;99.90
30628;DHT22;17394;50.890;4.724;2023-07-08T05:45:46;16.90;99.90
30628;DHT22;17394;50.890;4.724;2023-07-08T05:48:14;17.00;99.90
30628;DHT22;17394;50.890;4.724;2023-07-08T05:50:41;17.10;99.90
30628;DHT22;17394;50.890;4.724;2023-07-08T05:53:09;17.20;99.90
30628;DHT22;17394;50.890;4.724;2023-07-08T05:55:35;17.30;99.90
30628;DHT22;17394;50.890;4.724;2023-07-08T05:58:01;17.40;99.90
30628;DHT22;17394;50.890;4.724;2023-07-08T06:00:27;17.40;99.90
30628;DHT22;17394;50.890;4.724;2023-07-08T06:02:54;17.50;99.90
30628;DHT22;17394;50.890;4.724;2023-07-08T06:05:20;17.50;99.90
30628;DHT22;17394;50.890;4.724;2023-07-08T06:07:46;17.60;99.90
30628;DHT22;17394;50.890;4.724;2023-07-08T06:10:11;17.70;99.90
30628;DHT22;17394;50.890;4.724;2023-07-08T06:12:37;17.80;99.90
30628;DHT22;17394;50.890;4.724;2023-07-08T06:15:03;17.90;99.90
30628;DHT22;17394;50.890;4.724;2023-07-08T06:17:29;18.00;99.90
30628;DHT22;17394;50.890;4.724;2023-07-08T06:19:54;18.10;99.90
30628;DHT22;17394;50.890;4.724;2023-07-08T06:22:20;18.30;99.90
30628;DHT22;17394;50.890;4.724;2023-07-08T06:24:45;18.40;99.90
30628;DHT22;17394;50.890;4.724;2023-07-08T06:27:13;18.60;99.90
30628;DHT22;17394;50.890;4.724;2023-07-08T06:29:38;18.70;99.90
30628;DHT22;17394;50.890;4.724;2023-07-08T06:32:04;18.80;99.90
30628;DHT22;17394;50.890;4.724;2023-07-08T06:34:30;19.10;99.90
30628;DHT22;17394;50.890;4.724;2023-07-08T06:36:56;19.20;99.90
30628;DHT22;17394;50.890;4.724;2023-07-08T06:39:21;19.40;99.90
30628;DHT22;17394;50.890;4.724;2023-07-08T06:41:47;19.60;99.90
30628;DHT22;17394;50.890;4.724;2023-07-08T06:44:12;19.90;99.90
30628;DHT22;17394;50.890;4.724;2023-07-08T06:46:38;20.10;99.90
30628;DHT22;17394;50.890;4.724;2023-07-08T06:49:04;20.30;99.90
30628;DHT22;17394;50.890;4.724;2023-07-08T06:51:34;20.60;99.90
30628;DHT22;17394;50.890;4.724;2023-07-08T06:53:59;20.80;99.90
30628;DHT22;17394;50.890;4.724;2023-07-08T06:56:25;21.10;99.90
30628;DHT22;17394;50.890;4.724;2023-07-08T06:58:51;21.30;99.90
30628;DHT22;17394;50.890;4.724;2023-07-08T07:01:16;21.60;99.90
30628;DHT22;17394;50.890;4.724;2023-07-08T07:03:42;21.90;99.90
30628;DHT22;17394;50.890;4.724;2023-07-08T07:06:08;22.10;99.90
30628;DHT22;17394;50.890;4.724;2023-07-08T07:08:33;22.40;99.90
30628;DHT22;17394;50.890;4.724;2023-07-08T07:10:59;22.60;99.90
30628;DHT22;17394;50.890;4.724;2023-07-08T07:13:25;22.80;99.90
30628;DHT22;17394;50.890;4.724;2023-07-08T07:15:50;23.00;99.90
30628;DHT22;17394;50.890;4.724;2023-07-08T07:18:16;23.20;99.90
30628;DHT22;17394;50.890;4.724;2023-07-08T07:20:46;23.50;99.90
30628;DHT22;17394;50.890;4.724;2023-07-08T07:23:13;23.70;99.90
30628;DHT22;17394;50.890;4.724;2023-07-08T07:25:39;23.90;99.90
30628;DHT22;17394;50.890;4.724;2023-07-08T07:28:04;24.20;99.90
30628;DHT22;17394;50.890;4.724;2023-07-08T07:30:30;24.40;99.90
30628;DHT22;17394;50.890;4.724;2023-07-08T07:32:58;24.70;99.90
30628;DHT22;17394;50.890;4.724;2023-07-08T07:35:24;25.00;99.90
30628;DHT22;17394;50.890;4.724;2023-07-08T07:37:49;25.30;99.90
30628;DHT22;17394;50.890;4.724;2023-07-08T07:40:15;25.50;99.90
30628;DHT22;17394;50.890;4.724;2023-07-08T07:42:41;25.80;99.90
30628;DHT22;17394;50.890;4.724;2023-07-08T07:45:07;25.80;99.90
30628;DHT22;17394;50.890;4.724;2023-07-08T07:47:34;26.10;99.90
30628;DHT22;17394;50.890;4.724;2023-07-08T07:50:00;26.30;99.90
30628;DHT22;17394;50.890;4.724;2023-07-08T07:52:25;26.50;99.90
30628;DHT22;17394;50.890;4.724;2023-07-08T07:54:51;26.60;99.90
30628;DHT22;17394;50.890;4.724;2023-07-08T07:57:17;26.70;99.90
30628;DHT22;17394;50.890;4.724;2023-07-08T07:59:42;26.80;99.90
30628;DHT22;17394;50.890;4.724;2023-07-08T08:02:08;26.90;99.90
30628;DHT22;17394;50.890;4.724;2023-07-08T08:04:34;27.20;99.90
30628;DHT22;17394;50.890;4.724;2023-07-08T08:07:00;27.40;99.90
30628;DHT22;17394;50.890;4.724;2023-07-08T08:09:25;27.60;99.90
30628;DHT22;17394;50.890;4.724;2023-07-08T08:11:51;27.80;99.90
30628;DHT22;17394;50.890;4.724;2023-07-08T08:14:17;28.00;99.90
30628;DHT22;17394;50.890;4.724;2023-07-08T08:16:43;28.20;99.90
30628;DHT22;17394;50.890;4.724;2023-07-08T08:19:09;28.50;99.90
30628;DHT22;17394;50.890;4.724;2023-07-08T08:21:35;28.70;99.90
30628;DHT22;17394;50.890;4.724;2023-07-08T08:24:00;28.90;99.90
30628;DHT22;17394;50.890;4.724;2023-07-08T08:26:26;29.10;99.90
30628;DHT22;17394;50.890;4.724;2023-07-08T08:28:52;29.30;99.90
30628;DHT22;17394;50.890;4.724;2023-07-08T08:31:18;29.50;99.90
30628;DHT22;17394;50.890;4.724;2023-07-08T08:33:44;29.60;99.90
30628;DHT22;17394;50.890;4.724;2023-07-08T08:36:10;29.80;99.90
30628;DHT22;17394;50.890;4.724;2023-07-08T08:38:35;30.00;99.90
30628;DHT22;17394;50.890;4.724;2023-07-08T08:41:09;30.20;99.90
30628;DHT22;17394;50.890;4.724;2023-07-08T08:43:38;30.30;99.90
30628;DHT22;17394;50.890;4.724;2023-07-08T08:46:06;30.40;99.90
30628;DHT22;17394;50.890;4.724;2023-07-08T08:48:36;30.40;99.90
30628;DHT22;17394;50.890;4.724;2023-07-08T08:51:12;30.60;99.90
30628;DHT22;17394;50.890;4.724;2023-07-08T08:53:38;30.90;99.90
30628;DHT22;17394;50.890;4.724;2023-07-08T08:58:43;31.20;99.90
30628;DHT22;17394;50.890;4.724;2023-07-08T09:01:14;31.30;99.90
30628;DHT22;17394;50.890;4.724;2023-07-08T09:06:26;31.70;99.90
30628;DHT22;17394;50.890;4.724;2023-07-08T09:08:52;31.90;99.90
30628;DHT22;17394;50.890;4.724;2023-07-08T09:11:23;31.90;99.90
30628;DHT22;17394;50.890;4.724;2023-07-08T09:13:50;31.90;99.40
30628;DHT22;17394;50.890;4.724;2023-07-08T09:16:25;31.70;99.40
30628;DHT22;17394;50.890;4.724;2023-07-08T09:18:57;31.70;99.90
30628;DHT22;17394;50.890;4.724;2023-07-08T09:21:25;31.80;98.70
30628;DHT22;17394;50.890;4.724;2023-07-08T09:23:53;31.80;99.10
30628;DHT22;17394;50.890;4.724;2023-07-08T09:26:22;32.00;99.90
30628;DHT22;17394;50.890;4.724;2023-07-08T09:28:48;32.00;98.10
30628;DHT22;17394;50.890;4.724;2023-07-08T09:31:25;32.00;98.40
30628;DHT22;17394;50.890;4.724;2023-07-08T09:34:04;32.20;98.00
30628;DHT22;17394;50.890;4.724;2023-07-08T09:36:31;32.40;97.60
30628;DHT22;17394;50.890;4.724;2023-07-08T09:38:56;32.30;96.80
30628;DHT22;17394;50.890;4.724;2023-07-08T09:41:35;32.30;96.80
30628;DHT22;17394;50.890;4.724;2023-07-08T09:44:15;32.40;96.30
30628;DHT22;17394;50.890;4.724;2023-07-08T09:46:41;32.50;95.90
30628;DHT22;17394;50.890;4.724;2023-07-08T09:49:40;32.60;95.70
30628;DHT22;17394;50.890;4.724;2023-07-08T09:51:58;32.50;93.70
30628;DHT22;17394;50.890;4.724;2023-07-08T09:54:25;32.20;93.10
30628;DHT22;17394;50.890;4.724;2023-07-08T09:57:00;32.20;94.50
30628;DHT22;17394;50.890;4.724;2023-07-08T09:59:29;32.20;94.90
30628;DHT22;17394;50.890;4.724;2023-07-08T10:01:59;32.30;95.60
30628;DHT22;17394;50.890;4.724;2023-07-08T10:04:25;32.50;95.40
30628;DHT22;17394;50.890;4.724;2023-07-08T10:06:51;32.80;95.00
30628;DHT22;17394;50.890;4.724;2023-07-08T10:09:21;32.80;94.20
30628;DHT22;17394;50.890;4.724;2023-07-08T10:11:53;32.80;94.10
30628;DHT22;17394;50.890;4.724;2023-07-08T10:16:47;32.80;94.40
30628;DHT22;17394;50.890;4.724;2023-07-08T10:19:14;33.00;93.20
30628;DHT22;17394;50.890;4.724;2023-07-08T10:21:44;33.00;92.30
30628;DHT22;17394;50.890;4.724;2023-07-08T10:29:32;32.80;93.50
30628;DHT22;17394;50.890;4.724;2023-07-08T10:35:09;32.90;93.40
30628;DHT22;17394;50.890;4.724;2023-07-08T10:50:51;33.40;90.20
30628;DHT22;17394;50.890;4.724;2023-07-08T10:55:53;33.10;91.40
30628;DHT22;17394;50.890;4.724;2023-07-08T10:58:25;33.20;91.70
30628;DHT22;17394;50.890;4.724;2023-07-08T11:06:06;33.50;90.80
30628;DHT22;17394;50.890;4.724;2023-07-08T11:12:09;33.70;90.80
30628;DHT22;17394;50.890;4.724;2023-07-08T11:19:26;34.00;89.40
30628;DHT22;17394;50.890;4.724;2023-07-08T11:21:54;34.00;88.60
30628;DHT22;17394;50.890;4.724;2023-07-08T11:29:57;34.30;86.10
30628;DHT22;17394;50.890;4.724;2023-07-08T11:32:25;34.30;84.90
30628;DHT22;17394;50.890;4.724;2023-07-08T11:34:52;34.20;84.50
30628;DHT22;17394;50.890;4.724;2023-07-08T11:37:19;34.10;85.20
30628;DHT22;17394;50.890;4.724;2023-07-08T11:40:17;34.10;85.40
30628;DHT22;17394;50.890;4.724;2023-07-08T11:42:40;34.10;86.00
30628;DHT22;17394;50.890;4.724;2023-07-08T11:47:44;34.30;87.40
30628;DHT22;17394;50.890;4.724;2023-07-08T11:52:38;34.80;86.30
30628;DHT22;17394;50.890;4.724;2023-07-08T11:55:21;34.80;86.00
30628;DHT22;17394;50.890;4.724;2023-07-08T11:57:46;34.80;85.80
30628;DHT22;17394;50.890;4.724;2023-07-08T12:00:19;34.80;85.70
30628;DHT22;17394;50.890;4.724;2023-07-08T12:02:55;34.90;85.60
30628;DHT22;17394;50.890;4.724;2023-07-08T12:05:31;35.00;86.90
30628;DHT22;17394;50.890;4.724;2023-07-08T12:07:58;35.00;86.50
30628;DHT22;17394;50.890;4.724;2023-07-08T12:12:50;35.10;85.10
30628;DHT22;17394;50.890;4.724;2023-07-08T12:15:29;35.10;85.50
30628;DHT22;17394;50.890;4.724;2023-07-08T12:17:58;35.20;84.50
30628;DHT22;17394;50.890;4.724;2023-07-08T12:20:27;35.30;84.60
30628;DHT22;17394;50.890;4.724;2023-07-08T12:22:52;35.30;85.10
30628;DHT22;17394;50.890;4.724;2023-07-08T12:48:36;35.30;82.90
30628;DHT22;17394;50.890;4.724;2023-07-08T12:51:03;34.90;83.40
30628;DHT22;17394;50.890;4.724;2023-07-08T12:53:29;34.60;83.10
30628;DHT22;17394;50.890;4.724;2023-07-08T12:55:59;34.30;83.20
30628;DHT22;17394;50.890;4.724;2023-07-08T12:58:26;34.00;84.00
30628;DHT22;17394;50.890;4.724;2023-07-08T13:00:52;33.70;84.60
30628;DHT22;17394;50.890;4.724;2023-07-08T13:03:19;33.40;87.50
30628;DHT22;17394;50.890;4.724;2023-07-08T13:05:47;32.90;89.10
30628;DHT22;17394;50.890;4.724;2023-07-08T13:08:14;32.20;89.20
30628;DHT22;17394;50.890;4.724;2023-07-08T13:10:41;31.60;89.10
30628;DHT22;17394;50.890;4.724;2023-07-08T13:13:10;31.20;89.70
30628;DHT22;17394;50.890;4.724;2023-07-08T13:15:38;30.80;88.20
30628;DHT22;17394;50.890;4.724;2023-07-08T13:18:05;30.40;88.00
30628;DHT22;17394;50.890;4.724;2023-07-08T13:20:33;30.10;88.20
30628;DHT22;17394;50.890;4.724;2023-07-08T13:23:00;29.80;89.90
30628;DHT22;17394;50.890;4.724;2023-07-08T13:25:28;29.50;89.70
30628;DHT22;17394;50.890;4.724;2023-07-08T13:28:01;29.30;90.10
30628;DHT22;17394;50.890;4.724;2023-07-08T13:30:28;29.10;91.00
30628;DHT22;17394;50.890;4.724;2023-07-08T13:32:58;28.90;91.20
30628;DHT22;17394;50.890;4.724;2023-07-08T13:35:28;28.70;91.80
30628;DHT22;17394;50.890;4.724;2023-07-08T13:37:59;28.60;92.30
30628;DHT22;17394;50.890;4.724;2023-07-08T13:40:26;28.40;93.00
30628;DHT22;17394;50.890;4.724;2023-07-08T13:42:52;28.40;93.30
30628;DHT22;17394;50.890;4.724;2023-07-08T13:45:30;28.40;94.00
30628;DHT22;17394;50.890;4.724;2023-07-08T13:50:36;28.40;96.30
30628;DHT22;17394;50.890;4.724;2023-07-08T13:53:14;28.60;96.80
30628;DHT22;17394;50.890;4.724;2023-07-08T13:55:40;28.70;95.90
30628;DHT22;17394;50.890;4.724;2023-07-08T13:58:06;28.80;95.50
30628;DHT22;17394;50.890;4.724;2023-07-08T14:00:35;28.90;95.60
30628;DHT22;17394;50.890;4.724;2023-07-08T14:03:01;29.10;96.00
30628;DHT22;17394;50.890;4.724;2023-07-08T14:05:27;29.10;96.30
30628;DHT22;17394;50.890;4.724;2023-07-08T14:07:52;29.20;96.80
30628;DHT22;17394;50.890;4.724;2023-07-08T14:10:18;29.20;97.10
30628;DHT22;17394;50.890;4.724;2023-07-08T14:12:44;29.40;97.30
30628;DHT22;17394;50.890;4.724;2023-07-08T14:15:09;29.40;96.60
30628;DHT22;17394;50.890;4.724;2023-07-08T14:17:35;29.50;96.40
30628;DHT22;17394;50.890;4.724;2023-07-08T14:20:07;29.50;97.10
30628;DHT22;17394;50.890;4.724;2023-07-08T14:22:33;29.30;97.90
30628;DHT22;17394;50.890;4.724;2023-07-08T14:25:01;29.20;98.20
30628;DHT22;17394;50.890;4.724;2023-07-08T14:27:27;29.00;97.90
30628;DHT22;17394;50.890;4.724;2023-07-08T14:29:52;28.90;97.30
30628;DHT22;17394;50.890;4.724;2023-07-08T14:32:28;28.90;96.90
30628;DHT22;17394;50.890;4.724;2023-07-08T14:34:56;29.00;96.80
30628;DHT22;17394;50.890;4.724;2023-07-08T14:37:22;29.10;96.70
30628;DHT22;17394;50.890;4.724;2023-07-08T14:39:48;29.20;96.20
30628;DHT22;17394;50.890;4.724;2023-07-08T14:42:15;29.30;96.70
30628;DHT22;17394;50.890;4.724;2023-07-08T14:44:43;29.50;96.40
30628;DHT22;17394;50.890;4.724;2023-07-08T14:47:13;29.60;96.20
30628;DHT22;17394;50.890;4.724;2023-07-08T14:49:39;29.60;95.40
30628;DHT22;17394;50.890;4.724;2023-07-08T14:52:05;29.70;95.20
30628;DHT22;17394;50.890;4.724;2023-07-08T14:54:32;29.80;95.00
30628;DHT22;17394;50.890;4.724;2023-07-08T14:56:57;30.00;95.40
30628;DHT22;17394;50.890;4.724;2023-07-08T14:59:24;30.30;95.50
30628;DHT22;17394;50.890;4.724;2023-07-08T15:01:51;30.50;94.80
30628;DHT22;17394;50.890;4.724;2023-07-08T15:04:18;30.60;94.20
30628;DHT22;17394;50.890;4.724;2023-07-08T15:06:44;30.90;92.80
30628;DHT22;17394;50.890;4.724;2023-07-08T15:09:10;31.10;92.30
30628;DHT22;17394;50.890;4.724;2023-07-08T15:11:35;31.20;91.70
30628;DHT22;17394;50.890;4.724;2023-07-08T15:14:03;31.40;92.10
30628;DHT22;17394;50.890;4.724;2023-07-08T15:16:30;31.50;92.70
30628;DHT22;17394;50.890;4.724;2023-07-08T15:18:56;31.70;93.00
30628;DHT22;17394;50.890;4.724;2023-07-08T15:21:23;31.70;91.40
30628;DHT22;17394;50.890;4.724;2023-07-08T15:23:48;31.80;91.40
30628;DHT22;17394;50.890;4.724;2023-07-08T15:26:14;31.70;90.70
30628;DHT22;17394;50.890;4.724;2023-07-08T15:28:46;31.70;90.80
30628;DHT22;17394;50.890;4.724;2023-07-08T15:31:16;31.80;90.60
30628;DHT22;17394;50.890;4.724;2023-07-08T15:33:42;31.90;90.40
30628;DHT22;17394;50.890;4.724;2023-07-08T15:36:09;31.90;90.80
30628;DHT22;17394;50.890;4.724;2023-07-08T15:38:35;32.00;90.70
30628;DHT22;17394;50.890;4.724;2023-07-08T15:41:00;32.10;90.90
30628;DHT22;17394;50.890;4.724;2023-07-08T15:43:29;32.20;90.80
30628;DHT22;17394;50.890;4.724;2023-07-08T15:45:55;32.20;90.50
30628;DHT22;17394;50.890;4.724;2023-07-08T15:48:20;32.30;90.60
30628;DHT22;17394;50.890;4.724;2023-07-08T15:50:46;32.40;91.40
30628;DHT22;17394;50.890;4.724;2023-07-08T15:53:13;32.60;91.90
30628;DHT22;17394;50.890;4.724;2023-07-08T15:55:42;32.70;92.00
30628;DHT22;17394;50.890;4.724;2023-07-08T15:58:10;33.00;91.90
30628;DHT22;17394;50.890;4.724;2023-07-08T16:00:37;33.10;91.90
30628;DHT22;17394;50.890;4.724;2023-07-08T16:03:09;33.20;92.10
30628;DHT22;17394;50.890;4.724;2023-07-08T16:05:36;33.20;92.20
30628;DHT22;17394;50.890;4.724;2023-07-08T16:08:02;33.30;92.60
30628;DHT22;17394;50.890;4.724;2023-07-08T16:10:31;33.30;92.60
30628;DHT22;17394;50.890;4.724;2023-07-08T16:12:57;33.40;92.40
30628;DHT22;17394;50.890;4.724;2023-07-08T16:15:34;33.40;92.40
30628;DHT22;17394;50.890;4.724;2023-07-08T16:18:01;33.30;92.60
30628;DHT22;17394;50.890;4.724;2023-07-08T16:20:28;33.30;92.70
30628;DHT22;17394;50.890;4.724;2023-07-08T16:22:54;33.30;92.80
30628;DHT22;17394;50.890;4.724;2023-07-08T16:25:23;33.20;92.40
30628;DHT22;17394;50.890;4.724;2023-07-08T16:27:50;33.20;92.50
30628;DHT22;17394;50.890;4.724;2023-07-08T16:30:17;33.30;92.80
30628;DHT22;17394;50.890;4.724;2023-07-08T16:32:43;33.10;92.50
30628;DHT22;17394;50.890;4.724;2023-07-08T16:35:14;33.30;92.10
30628;DHT22;17394;50.890;4.724;2023-07-08T16:37:40;33.30;92.30
30628;DHT22;17394;50.890;4.724;2023-07-08T16:40:06;33.20;91.80
30628;DHT22;17394;50.890;4.724;2023-07-08T16:42:34;33.10;92.00
30628;DHT22;17394;50.890;4.724;2023-07-08T16:45:00;32.90;92.10
30628;DHT22;17394;50.890;4.724;2023-07-08T16:47:26;32.70;92.50
30628;DHT22;17394;50.890;4.724;2023-07-08T16:49:51;32.60;92.80
30628;DHT22;17394;50.890;4.724;2023-07-08T16:52:17;32.60;93.00
30628;DHT22;17394;50.890;4.724;2023-07-08T16:54:43;32.70;93.20
30628;DHT22;17394;50.890;4.724;2023-07-08T16:57:09;32.80;93.00
30628;DHT22;17394;50.890;4.724;2023-07-08T16:59:37;32.80;93.10
30628;DHT22;17394;50.890;4.724;2023-07-08T17:02:13;32.90;93.30